Time;durP1;ratioP1;P1;durP2;ratioP2;P2;SDS_P1;SDS_P2;PMS_P1;PMS_P2;Temp;Humidity;BMP_temperature;BMP_pressure;BME280_temperature;BME280_humidity;BME280_pressure;Samples;Min_cycle;Max_cycle;Signal;HPM_P1;HPM_P2
2022/04/09 00:05:13;;;;;;;9.1;12;;;;;;;7.3;84.1;96510;;;;
2022/04/09 00:15:12;;;;;;;9.6;11.5;;;;;;;7.3;83.9;96530;;;;
2022/04/09 00:26:12;;;;;;;9.6;11.5;;;;;;;7.2;84.2;96500;;;;
2022/04/09 00:37:12;;;;;;;10.3;13.9;;;;;;;7.3;84.2;96530;;;;
2022/04/09 00:47:12;;;;;;;10.3;13.9;;;;;;;7.4;83.9;96540;;;;
2022/04/09 00:57:12;;;;;;;10.3;13.9;;;;;;;7.4;84;96510;;;;
2022/04/09 01:07:12;;;;;;;14;17.1;;;;;;;7.2;84.5;96490;;;;
2022/04/09 01:18:12;;;;;;;14;17.1;;;;;;;7.2;84.9;96470;;;;
2022/04/09 01:29:12;;;;;;;14;17.1;;;;;;;7.4;84.2;96470;;;;
2022/04/09 01:40:12;;;;;;;16.4;20.7;;;;;;;7.4;84.5;96480;;;;
2022/04/09 01:51:12;;;;;;;16.4;20.7;;;;;;;7.4;83.7;96470;;;;
2022/04/09 02:01:12;;;;;;;16.4;20.7;;;;;;;7.4;83.9;96490;;;;
2022/04/09 02:12:12;;;;;;;18.4;23.7;;;;;;;7.4;83.7;96490;;;;
2022/04/09 02:22:12;;;;;;;18.4;23.7;;;;;;;7.4;83.9;96480;;;;
2022/04/09 02:33:12;;;;;;;18.4;23.7;;;;;;;7.4;84.6;96470;;;;
2022/04/09 02:44:12;;;;;;;19.4;23.7;;;;;;;7.2;84.6;96450;;;;
2022/04/09 02:55:12;;;;;;;19.4;23.7;;;;;;;7;85.2;96410;;;;
2022/04/09 03:05:13;;;;;;;19.4;23.7;;;;;;;6.9;86.1;96410;;;;
2022/04/09 03:16:12;;;;;;;19.8;23;;;;;;;6.8;86.2;96380;;;;
2022/04/09 03:26:12;;;;;;;19.8;23;;;;;;;6.7;86.9;96380;;;;
2022/04/09 03:37:12;;;;;;;19.1;23.4;;;;;;;6.6;86.9;96350;;;;
2022/04/09 03:47:12;;;;;;;19.1;23.4;;;;;;;6.4;86.8;96320;;;;
2022/04/09 03:57:12;;;;;;;19.1;23.4;;;;;;;6.5;87.1;96320;;;;
2022/04/09 04:08:12;;;;;;;18.4;21.4;;;;;;;6.7;86.7;96300;;;;
2022/04/09 04:18:12;;;;;;;18.4;21.4;;;;;;;6.6;87.2;96290;;;;
2022/04/09 04:28:12;;;;;;;18.4;21.4;;;;;;;6.7;87.3;96300;;;;
2022/04/09 04:39:12;;;;;;;17.7;20.6;;;;;;;6.8;87.2;96290;;;;
2022/04/09 04:50:12;;;;;;;17.7;20.6;;;;;;;7;87.1;96280;;;;
2022/04/09 05:00:12;;;;;;;17.7;20.6;;;;;;;7;87.1;96280;;;;
2022/04/09 05:11:12;;;;;;;16.8;19.8;;;;;;;7.3;86.7;96270;;;;
2022/04/09 05:21:13;;;;;;;16.8;19.8;;;;;;;7.3;85.8;96340;;;;
2022/04/09 05:31:13;;;;;;;16.8;19.8;;;;;;;7.2;86.3;96350;;;;
2022/04/09 05:42:12;;;;;;;21.5;27.6;;;;;;;7.3;86.6;96380;;;;
2022/04/09 05:53:12;;;;;;;21.5;27.6;;;;;;;7;86.6;96390;;;;
2022/04/09 06:04:14;;;;;;;21.5;27.6;;;;;;;7.2;85.7;96420;;;;
2022/04/09 06:15:12;;;;;;;13;16.7;;;;;;;7.2;85.7;96520;;;;
2022/04/09 06:25:12;;;;;;;13;16.7;;;;;;;6.9;86.3;96580;;;;
2022/04/09 06:36:12;;;;;;;6.8;8.9;;;;;;;6.8;85.9;96660;;;;
2022/04/09 06:46:13;;;;;;;6.8;8.9;;;;;;;6.4;83.7;96700;;;;
2022/04/09 06:57:12;;;;;;;6.8;8.9;;;;;;;6;82.3;96760;;;;
2022/04/09 07:08:12;;;;;;;1.8;4.4;;;;;;;5.7;83.1;96840;;;;
2022/04/09 07:19:12;;;;;;;1.8;4.4;;;;;;;5.4;82.3;96880;;;;
2022/04/09 07:29:12;;;;;;;1.8;4.4;;;;;;;5.3;82.4;96940;;;;
2022/04/09 07:40:12;;;;;;;1.8;3.2;;;;;;;5.2;82.4;96970;;;;
2022/04/09 07:51:12;;;;;;;1.8;3.2;;;;;;;5.1;82.7;97060;;;;
2022/04/09 08:01:12;;;;;;;1.8;3.2;;;;;;;5;82.2;97090;;;;
2022/04/09 08:12:12;;;;;;;2.8;4.2;;;;;;;4.7;82.2;97130;;;;
2022/04/09 08:22:12;;;;;;;2.8;4.2;;;;;;;4.7;83;97180;;;;
2022/04/09 08:32:13;;;;;;;2.8;4.2;;;;;;;4.8;82.3;97210;;;;
2022/04/09 08:42:12;;;;;;;3.7;5.8;;;;;;;4.7;81.9;97230;;;;
2022/04/09 08:52:12;;;;;;;3.7;5.8;;;;;;;4.6;80.5;97250;;;;
2022/04/09 09:02:13;;;;;;;3.7;5.8;;;;;;;4.7;81.6;97300;;;;
2022/04/09 09:13:12;;;;;;;3.5;5.3;;;;;;;4.9;82;97310;;;;
2022/04/09 09:23:12;;;;;;;3.5;5.3;;;;;;;4.9;81.2;97360;;;;
2022/04/09 09:34:12;;;;;;;3.5;5.3;;;;;;;4.9;80.2;97400;;;;
2022/04/09 09:45:12;;;;;;;4.8;8.1;;;;;;;5.1;79.6;97420;;;;
2022/04/09 09:55:14;;;;;;;4.8;8.1;;;;;;;5.2;78.6;97430;;;;
2022/04/09 10:05:13;;;;;;;5.4;7.3;;;;;;;5.3;77.7;97440;;;;
2022/04/09 10:16:18;;;;;;;5.4;7.3;;;;;;;5.7;77.5;97470;;;;
2022/04/09 10:27:12;;;;;;;5.4;7.3;;;;;;;5.7;76.2;97480;;;;
2022/04/09 10:37:13;;;;;;;10.4;12.7;;;;;;;6.1;76.5;97490;;;;
2022/04/09 10:48:14;;;;;;;10.4;12.7;;;;;;;6.2;75.5;97510;;;;
2022/04/09 10:58:13;;;;;;;10.4;12.7;;;;;;;6.1;76.9;97520;;;;
2022/04/09 11:08:14;;;;;;;16.5;23;;;;;;;6.1;75.8;97490;;;;
2022/04/09 11:19:12;;;;;;;16.5;23;;;;;;;6;75.8;97550;;;;
2022/04/09 11:30:12;;;;;;;16.5;23;;;;;;;6.2;75.5;97550;;;;
2022/04/09 11:40:12;;;;;;;12.8;16.6;;;;;;;6.1;75.7;97590;;;;
2022/04/09 11:50:12;;;;;;;12.8;16.6;;;;;;;6;75.6;97610;;;;
2022/04/09 12:01:12;;;;;;;12.8;16.6;;;;;;;5.9;76;97620;;;;
2022/04/09 12:11:13;;;;;;;12.6;14.8;;;;;;;5.8;76.6;97640;;;;
2022/04/09 12:21:12;;;;;;;12.6;14.8;;;;;;;6;75.8;97640;;;;
2022/04/09 12:31:12;;;;;;;12.6;14.8;;;;;;;6.3;74.7;97660;;;;
2022/04/09 12:41:13;;;;;;;14.7;17.7;;;;;;;6.8;73.8;97650;;;;
2022/04/09 12:52:13;;;;;;;14.7;17.7;;;;;;;7;73;97660;;;;
2022/04/09 13:03:13;;;;;;;14.7;17.7;;;;;;;6.9;72.7;97640;;;;
2022/04/09 13:14:12;;;;;;;16;18.9;;;;;;;6.9;72.6;97650;;;;
2022/04/09 13:24:14;;;;;;;16;18.9;;;;;;;6.8;72.6;97680;;;;
2022/04/09 13:35:13;;;;;;;18.2;23.7;;;;;;;7.1;71.9;97670;;;;
2022/04/09 13:46:13;;;;;;;18.2;23.7;;;;;;;6.7;71.8;97660;;;;
2022/04/09 13:57:12;;;;;;;18.2;23.7;;;;;;;6.4;74;97670;;;;
2022/04/09 14:08:13;;;;;;;13.5;17.4;;;;;;;6.8;73.7;97680;;;;
2022/04/09 14:18:13;;;;;;;13.5;17.4;;;;;;;6.9;72.3;97680;;;;
2022/04/09 14:28:14;;;;;;;13.5;17.4;;;;;;;7;69;97690;;;;
2022/04/09 14:39:13;;;;;;;12.6;17.6;;;;;;;7.3;69.7;97680;;;;
2022/04/09 14:50:13;;;;;;;12.6;17.6;;;;;;;7.2;70.3;97690;;;;
2022/04/09 15:01:13;;;;;;;12.6;17.6;;;;;;;7.4;70.3;97690;;;;
2022/04/09 15:11:13;;;;;;;14.3;18;;;;;;;7.4;69.4;97720;;;;
2022/04/09 15:22:13;;;;;;;14.3;18;;;;;;;7.5;68.7;97690;;;;
2022/04/09 15:33:13;;;;;;;14.3;18;;;;;;;8.2;66.3;97700;;;;
2022/04/09 15:43:13;;;;;;;11.3;14.9;;;;;;;8.5;62.4;97710;;;;
2022/04/09 15:54:13;;;;;;;11.3;14.9;;;;;;;8.5;63.2;97720;;;;
2022/04/09 16:05:13;;;;;;;9.5;13.7;;;;;;;8.5;60.7;97750;;;;
2022/04/09 16:16:13;;;;;;;9.5;13.7;;;;;;;8.4;60.4;97750;;;;
2022/04/09 16:27:14;;;;;;;9.5;13.7;;;;;;;8.6;59.7;97770;;;;
2022/04/09 16:37:13;;;;;;;9.7;13;;;;;;;8.3;60.6;97770;;;;
2022/04/09 16:47:13;;;;;;;9.7;13;;;;;;;7.9;61;97770;;;;
2022/04/09 16:57:13;;;;;;;9.7;13;;;;;;;7.5;59.3;97780;;;;
2022/04/09 17:07:13;;;;;;;8.2;10.7;;;;;;;7.2;59.5;97790;;;;
2022/04/09 17:17:14;;;;;;;8.2;10.7;;;;;;;6.7;61.5;97790;;;;
2022/04/09 17:28:13;;;;;;;8.2;10.7;;;;;;;6.1;62.6;97780;;;;
2022/04/09 17:38:13;;;;;;;9.6;11.9;;;;;;;5.6;64.2;97790;;;;
2022/04/09 17:48:13;;;;;;;9.6;11.9;;;;;;;5.1;65.6;97800;;;;
2022/04/09 17:58:13;;;;;;;9.6;11.9;;;;;;;4.8;67.8;97810;;;;
2022/04/09 18:09:13;;;;;;;15.7;21.4;;;;;;;4.6;69;97850;;;;
2022/04/09 18:19:13;;;;;;;15.7;21.4;;;;;;;4.5;68.8;97860;;;;
2022/04/09 18:29:13;;;;;;;15.7;21.4;;;;;;;4.5;69.2;97870;;;;
2022/04/09 18:40:13;;;;;;;20.3;25.4;;;;;;;4.5;69.9;97880;;;;
2022/04/09 18:50:13;;;;;;;20.3;25.4;;;;;;;4.5;70.7;97910;;;;
2022/04/09 19:01:13;;;;;;;20.3;25.4;;;;;;;4.4;71.3;97930;;;;
2022/04/09 19:12:13;;;;;;;17.9;24.6;;;;;;;4.3;72.4;97940;;;;
2022/04/09 19:22:13;;;;;;;17.9;24.6;;;;;;;4.2;73;97960;;;;
2022/04/09 19:32:13;;;;;;;17.9;24.6;;;;;;;4;73.6;97960;;;;
2022/04/09 19:42:13;;;;;;;17;23.5;;;;;;;3.9;73.9;97980;;;;
2022/04/09 19:52:13;;;;;;;17;23.5;;;;;;;3.8;74.9;97990;;;;
2022/04/09 20:02:13;;;;;;;17;23.5;;;;;;;3.8;75.8;97990;;;;
2022/04/09 20:13:17;;;;;;;18.8;27.7;;;;;;;3.8;75.9;98000;;;;
2022/04/09 20:23:13;;;;;;;18.8;27.7;;;;;;;3.7;76.1;98000;;;;
2022/04/09 20:34:13;;;;;;;20.4;26.2;;;;;;;3.5;76.2;98010;;;;
2022/04/09 20:44:13;;;;;;;20.4;26.2;;;;;;;3.3;76.9;98010;;;;
2022/04/09 20:55:13;;;;;;;20.4;26.2;;;;;;;3.2;77;98010;;;;
2022/04/09 21:06:13;;;;;;;20.4;27;;;;;;;2.9;77.7;98010;;;;
2022/04/09 21:16:13;;;;;;;20.4;27;;;;;;;2.8;78.3;98020;;;;
2022/04/09 21:26:13;;;;;;;20.4;27;;;;;;;2.6;78.2;98030;;;;
2022/04/09 21:36:13;;;;;;;14.9;22.8;;;;;;;2.5;78.2;98040;;;;
2022/04/09 21:46:13;;;;;;;14.9;22.8;;;;;;;2.3;78.2;98050;;;;
2022/04/09 21:57:13;;;;;;;14.9;22.8;;;;;;;2.1;78.6;98060;;;;
2022/04/09 22:08:13;;;;;;;14;21.4;;;;;;;2;78.9;98070;;;;
2022/04/09 22:19:13;;;;;;;14;21.4;;;;;;;2.1;80.2;98070;;;;
2022/04/09 22:30:13;;;;;;;14;21.4;;;;;;;2;80.4;98090;;;;
2022/04/09 22:41:13;;;;;;;16.9;24.4;;;;;;;2;81.1;98100;;;;
2022/04/09 22:51:13;;;;;;;16.9;24.4;;;;;;;2.1;81.1;98100;;;;
2022/04/09 23:02:13;;;;;;;16.9;24.4;;;;;;;1.9;80.5;98110;;;;
2022/04/09 23:13:13;;;;;;;16.4;21.4;;;;;;;1.9;80.5;98120;;;;
2022/04/09 23:23:13;;;;;;;16.4;21.4;;;;;;;1.8;80.3;98120;;;;
2022/04/09 23:34:13;;;;;;;13.4;20.2;;;;;;;1.8;80.4;98130;;;;
2022/04/09 23:45:13;;;;;;;13.4;20.2;;;;;;;1.8;80.5;98150;;;;
2022/04/09 23:56:13;;;;;;;13.4;20.2;;;;;;;1.7;80.4;98150;;;;
